Flight Track Log - Related Links

Times and Time Zones

All times are in EDT time to prevent confusion due to time zone crossing. See the SIA325 flight status page for this flight to view local times or setup timezone preferences in your user account.

Time Position Orientation Groundspeed Altitude Reporting Facility
EDT Latitude Longitude Course Direction KTS MPH feet Rate Location/Type
Sat 04:24:47 PM 50.0480 8.6010 70° East 187 215 1,200  Level FlightAware ADS-B
Sat 04:25:17 PM 50.0570 8.6390 70° East 180 207 2,600 2,400 Climbing FlightAware ADS-B
Sat 04:25:42 PM 50.0640 8.6700 71° East 186 214 3,400 1,800 Climbing FlightAware ADS-B
Sat 04:25:57 PM 50.0680 8.6910 73° East 201 231 3,800 1,800 Climbing FlightAware ADS-B
Sat 04:26:12 PM 50.0720 8.7110 73° East 202 232 4,300 1,600 Climbing FlightAware ADS-B
Sat 04:26:27 PM 50.0700 8.7330 98° East 211 243 4,600 1,350 Climbing FlightAware ADS-B
Sat 04:26:52 PM 50.0660 8.7730 99° East 231 266 5,200 1,500 Climbing FlightAware ADS-B
Sat 04:27:07 PM 50.0630 8.8000 100° East 248 285 5,600 1,650 Climbing FlightAware ADS-B
Sat 04:27:32 PM 50.0580 8.8430 100° East 259 298 6,300 1,855 Climbing FlightAware ADS-B
Sat 04:28:02 PM 50.0580 8.9000 90° East 276 318 7,300 1,900 Climbing FlightAware ADS-B
Sat 04:28:32 PM 50.0590 8.9560 88° East 287 330 8,200 1,733 Climbing FlightAware ADS-B
Sat 04:28:47 PM 50.0600 8.9970 88° East 307 353 8,600 1,200 Climbing FlightAware ADS-B
Sat 04:29:12 PM 50.0610 9.0550 88° East 334 384 9,000 1,050 Climbing FlightAware ADS-B
Sat 04:29:27 PM 50.0610 9.0890 90° East 346 398 9,300 1,350 Climbing FlightAware ADS-B
Sat 04:29:52 PM 50.0620 9.1420 88° East 358 412 9,900 2,229 Climbing FlightAware ADS-B
Sat 04:30:37 PM 50.0640 9.2780 89° East 371 427 11,900 2,400 Climbing FlightAware ADS-B
Sat 04:31:17 PM 50.0650 9.3760 89° East 378 435 13,300 2,160 Climbing FlightAware ADS-B
Sat 04:31:52 PM 50.0670 9.4750 88° East 385 443 14,600 2,118 Climbing FlightAware ADS-B
Sat 04:32:42 PM 50.0680 9.6160 89° East 400 460 16,300 2,067 Climbing FlightAware ADS-B
Sat 04:33:22 PM 50.0690 9.7290 89° East 405 466 17,700 1,920 Climbing FlightAware ADS-B
Sat 04:33:57 PM 50.0700 9.8300 89° East 413 475 18,700 1,765 Climbing FlightAware ADS-B
Sat 04:34:47 PM 50.0720 9.9850 89° East 421 484 20,200 1,705 Climbing FlightAware ADS-B
Sat 04:35:32 PM 50.0730 10.1290 89° East 434 499 21,400 1,624 Climbing FlightAware ADS-B
Sat 04:36:12 PM 50.0740 10.2520 89° East 441 507 22,500 1,650 Climbing FlightAware ADS-B
Sat 04:36:52 PM 50.0740 10.3800 90° East 444 511 23,600 1,694 Climbing FlightAware ADS-B
Sat 04:37:37 PM 50.0750 10.5270 89° East 446 513 24,900 1,329 Climbing FlightAware ADS-B
Sat 04:39:12 PM 50.0750 10.8190 90° East 461 531 26,700 1,157 Climbing FlightAware ADS-B
Sat 04:39:57 PM 50.0750 10.9820 90° East 467 537 27,600 1,200 Climbing FlightAware ADS-B
Sat 04:40:37 PM 50.0750 11.1190 90° East 473 544 28,400 1,129 Climbing FlightAware ADS-B
Sat 04:41:22 PM 50.0750 11.2720 90° East 478 550 29,200 1,059 Climbing FlightAware ADS-B
Sat 04:42:02 PM 50.0740 11.4090 91° East 481 554 29,900 1,275 Climbing FlightAware ADS-B
Sat 04:42:42 PM 50.0730 11.5430 91° East 474 545 30,900 776 Climbing FlightAware ADS-B
Sat 04:43:27 PM 50.0720 11.6900 91° East 472 543 31,000 71 Climbing FlightAware ADS-B
Sat 04:44:07 PM 50.0710 11.8300 91° East 472 543 31,000  Level FlightAware ADS-B
Sat 04:44:52 PM 50.0700 11.9840 91° East 473 544 31,000  Level FlightAware ADS-B
Sat 04:45:32 PM 50.0690 12.1230 91° East 474 545 31,000  Level FlightAware ADS-B
Sat 04:46:12 PM 50.0670 12.2550 91° East 474 545 31,000  Level FlightAware ADS-B
Sat 04:47:07 PM 50.0670 12.4450 90° East 474 545 31,000  Level FlightAware ADS-B
Sat 04:47:52 PM 50.0700 12.5980 88° East 475 547 31,000  Level FlightAware ADS-B
Sat 04:48:32 PM 50.0740 12.7290 87° East 475 547 31,000  Level FlightAware ADS-B
Sat 04:49:17 PM 50.0780 12.8900 88° East 475 547 31,000  Level FlightAware ADS-B
Sat 04:49:57 PM 50.0810 13.0160 88° East 475 547 31,000  Level FlightAware ADS-B
Sat 04:50:37 PM 50.0830 13.1600 89° East 475 547 31,000  Level FlightAware ADS-B
Sat 04:51:22 PM 50.0880 13.3110 87° East 476 548 31,000  Level FlightAware ADS-B
Sat 04:52:02 PM 50.0920 13.4490 87° East 476 548 31,000  Level FlightAware ADS-B
Sat 04:52:47 PM 50.0950 13.6010 88° East 474 545 31,000  Level FlightAware ADS-B
Sat 04:53:27 PM 50.0970 13.7360 89° East 473 544 31,000  Level FlightAware ADS-B
Sat 04:54:07 PM 50.0970 13.8820 90° East 474 545 31,000  Level FlightAware ADS-B
Sat 04:54:52 PM 50.0960 14.0320 91° East 475 547 31,000  Level FlightAware ADS-B
Sat 04:55:32 PM 50.0960 14.1520 90° East 477 549 31,000  Level FlightAware ADS-B
Sat 04:56:07 PM 50.0960 14.2770 90° East 479 551 31,000  Level FlightAware ADS-B
Sat 04:56:52 PM 50.0920 14.4280 92° East 479 551 31,000  Level FlightAware ADS-B
Sat 04:57:37 PM 50.0870 14.5980 93° East 478 550 31,000  Level FlightAware ADS-B
Sat 04:58:17 PM 50.0820 14.7330 93° East 479 551 31,000  Level FlightAware ADS-B
Sat 04:59:02 PM 50.0770 14.8920 93° East 478 550 31,000  Level FlightAware ADS-B
Sat 04:59:47 PM 50.0730 15.0420 92° East 479 551 31,000  Level FlightAware ADS-B
Sat 05:00:27 PM 50.0680 15.1820 93° East 479 551 31,000  Level FlightAware ADS-B
Sat 05:01:02 PM 50.0630 15.3060 94° East 480 552 31,000  Level FlightAware ADS-B
Sat 05:01:27 PM 50.0600 15.3880 93° East 480 552 31,000  Level FlightAware ADS-B
Sat 05:02:12 PM 50.0540 15.5470 93° East 480 552 31,000  Level FlightAware ADS-B
Sat 05:02:52 PM 50.0490 15.6820 93° East 481 554 31,000  Level FlightAware ADS-B
Sat 05:03:37 PM 50.0430 15.8370 93° East 483 556 31,000  Level FlightAware ADS-B
Sat 05:04:17 PM 50.0370 15.9770 94° East 486 559 31,000  Level FlightAware ADS-B
Sat 05:05:02 PM 50.0300 16.1340 94° East 487 560 31,000  Level FlightAware ADS-B
Sat 05:05:42 PM 50.0240 16.2740 94° East 487 560 31,000  Level FlightAware ADS-B
Sat 05:06:22 PM 50.0180 16.4120 94° East 488 562 31,000  Level FlightAware ADS-B
Sat 05:07:07 PM 50.0110 16.5690 94° East 487 560 31,000  Level FlightAware ADS-B
Sat 05:07:47 PM 50.0040 16.7040 95° East 487 560 31,000  Level FlightAware ADS-B
Sat 05:08:32 PM 49.9960 16.8680 94° East 486 559 31,000  Level FlightAware ADS-B
Sat 05:09:12 PM 49.9890 17.0060 94° East 487 560 31,000  Level FlightAware ADS-B
Sat 05:09:52 PM 49.9820 17.1470 94° East 488 562 31,000  Level FlightAware ADS-B
Sat 05:10:37 PM 49.9740 17.2980 95° East 488 562 31,000  Level FlightAware ADS-B
Sat 05:11:17 PM 49.9660 17.4380 95° East 488 562 31,000  Level FlightAware ADS-B
Sat 05:12:02 PM 49.9570 17.6010 95° East 489 563 31,000  Level FlightAware ADS-B
Sat 05:12:42 PM 49.9490 17.7400 95° East 490 564 31,000  Level FlightAware ADS-B
Sat 05:13:22 PM 49.9410 17.8710 95° East 490 564 31,000  Level FlightAware ADS-B
Sat 05:14:07 PM 49.9260 18.0120 99° East 490 564 31,000  Level FlightAware ADS-B
Sat 05:14:47 PM 49.9090 18.1540 100° East 488 562 31,000  Level FlightAware ADS-B
Sat 05:15:32 PM 49.8860 18.3220 102° East 488 562 31,000  Level FlightAware ADS-B
Sat 05:16:12 PM 49.8680 18.4530 102° East 489 563 31,000  Level FlightAware ADS-B
Sat 05:16:52 PM 49.8490 18.5960 102° East 488 562 31,000  Level FlightAware ADS-B
Sat 05:17:22 PM 49.8360 18.6920 102° East 489 563  Descending FlightAware ADS-B
Sat 05:18:02 PM 49.8170 18.8360 102° East 489 563 31,000 21,882 Climbing FlightAware ADS-B
Sat 05:18:47 PM 49.7960 18.9890 102° East 489 563 31,000  Level FlightAware ADS-B
Sat 05:19:27 PM 49.7770 19.1270 102° East 488 562 31,000  Level FlightAware ADS-B
Sat 05:20:12 PM 49.7560 19.2780 102° East 488 562 31,000  Level FlightAware ADS-B
Sat 05:20:52 PM 49.7360 19.4150 103° East 489 563 31,000  Level FlightAware ADS-B
Sat 05:21:32 PM 49.7160 19.5540 102° East 489 563 31,000  Level FlightAware ADS-B
Sat 05:22:17 PM 49.6940 19.7060 103° East 488 562 31,000  Level FlightAware ADS-B
Sat 05:22:57 PM 49.6740 19.8440 103° East 487 560 31,000  Level FlightAware ADS-B
Sat 05:23:42 PM 49.6520 19.9930 103° East 487 560 31,000  Level FlightAware ADS-B
Sat 05:24:22 PM 49.6320 20.1280 103° East 486 559 31,000  Level FlightAware ADS-B
Sat 05:25:02 PM 49.6120 20.2620 103° East 484 557 31,000  Level FlightAware ADS-B
Sat 05:25:47 PM 49.5890 20.4140 103° East 483 556 31,000  Level FlightAware ADS-B
Sat 05:26:27 PM 49.5690 20.5500 103° East 482 555 31,000  Level FlightAware ADS-B
Sat 05:27:12 PM 49.5490 20.6760 104° East 482 555 31,000  Level FlightAware ADS-B
Sat 05:27:52 PM 49.5250 20.8330 103° East 482 555 31,000  Level FlightAware ADS-B
Sat 05:28:32 PM 49.5040 20.9660 104° East 480 552 31,000  Level FlightAware ADS-B
Sat 05:29:17 PM 49.4800 21.1160 104° East 482 555 31,000  Level FlightAware ADS-B
Sat 05:29:57 PM 49.4600 21.2440 103° East 485 558 31,000  Level FlightAware ADS-B
Sat 05:30:42 PM 49.4350 21.3980 104° East 488 562 31,000  Level FlightAware ADS-B
Sat 05:31:22 PM 49.4130 21.5330 104° East 489 563 31,000  Level FlightAware ADS-B
Sat 05:32:02 PM 49.3910 21.6680 104° East 489 563 31,000  Level FlightAware ADS-B
Sat 05:32:47 PM 49.3670 21.8160 104° East 490 564 31,000  Level FlightAware ADS-B
Sat 05:33:27 PM 49.3440 21.9510 105° East 490 564 31,000  Level FlightAware ADS-B
Sat 05:34:12 PM 49.3190 22.1020 104° East 491 565 31,000  Level FlightAware ADS-B
Sat 05:34:52 PM 49.2960 22.2380 104° East 491 565 31,000  Level FlightAware ADS-B
Sat 05:35:32 PM 49.2730 22.3720 105° East 490 564 31,000  Level FlightAware ADS-B
Sat 05:36:17 PM 49.2480 22.5210 104° East 491 565 31,000  Level FlightAware ADS-B
Sat 05:36:57 PM 49.2250 22.6540 105° East 490 564 31,000  Level FlightAware ADS-B
Sat 05:37:42 PM 49.1980 22.8080 105° East 489 563 31,000  Level FlightAware ADS-B
Sat 05:38:22 PM 49.1740 22.9420 105° East 488 562 31,000  Level FlightAware ADS-B
Sat 05:39:02 PM 49.1510 23.0730 105° East 489 563 31,000  Level FlightAware ADS-B
Sat 05:39:47 PM 49.1250 23.2170 105° East 488 562 31,000  Level FlightAware ADS-B
Sat 05:40:27 PM 49.1010 23.3500 105° East 488 562 31,000  Level FlightAware ADS-B
Sat 05:41:07 PM 49.0780 23.4770 105° East 487 560 31,000  Level FlightAware ADS-B
Sat 05:41:52 PM 49.0500 23.6340 105° East 485 558 31,000  Level FlightAware ADS-B
Sat 05:42:32 PM 49.0250 23.7690 106° East 484 557 31,000  Level FlightAware ADS-B
Sat 05:43:17 PM 48.9970 23.9160 106° East 484 557 31,000  Level FlightAware ADS-B
Sat 05:43:57 PM 48.9730 24.0480 105° East 485 558 31,000  Level FlightAware ADS-B
Sat 05:44:32 PM 48.9530 24.1550 106° East 485 558 31,000  Level FlightAware ADS-B
Sat 05:45:22 PM 48.9220 24.3140 106° East 484 557 31,000  Level FlightAware ADS-B
Sat 05:46:02 PM 48.8960 24.4530 106° East 484 557 31,000  Level FlightAware ADS-B
Sat 05:46:47 PM 48.8700 24.5890 106° East 484 557 31,000  Level FlightAware ADS-B
Sat 05:47:27 PM 48.8430 24.7290 106° East 483 556 31,000  Level FlightAware ADS-B
Sat 05:48:07 PM 48.8200 24.8450 107° East 484 557 31,000  Level FlightAware ADS-B
Sat 05:48:57 PM 48.7880 25.0050 107° East 483 556 31,000  Level FlightAware ADS-B
Sat 05:49:32 PM 48.7650 25.1230 106° East 483 556 31,000  Level FlightAware ADS-B
Sat 05:50:17 PM 48.7380 25.2580 107° East 481 554 31,000  Level FlightAware ADS-B
Sat 05:51:02 PM 48.7090 25.4050 107° East 480 552 31,000  Level FlightAware ADS-B
Sat 05:51:37 PM 48.6840 25.5270 107° East 481 554 31,000  Level FlightAware ADS-B
Sat 05:52:32 PM 48.6490 25.6980 107° East 479 551 31,000  Level FlightAware ADS-B
Sat 05:53:22 PM 48.6180 25.8520 107° East 478 550 31,000  Level FlightAware ADS-B
Sat 05:54:02 PM 48.5890 25.9910 107° East 477 549 31,000  Level FlightAware ADS-B
Sat 05:54:42 PM 48.5640 26.1120 107° East 478 550 31,000  Level FlightAware ADS-B
Sat 05:55:27 PM 48.5360 26.2430 108° East 477 549 31,000  Level FlightAware ADS-B
Sat 05:56:02 PM 48.5100 26.3660 108° East 475 547 31,000  Level FlightAware ADS-B
Sat 05:57:02 PM 48.4720 26.5470 108° East 474 545 31,000  Level FlightAware ADS-B
Sat 05:57:42 PM 48.4440 26.6760 108° East 473 544 31,000  Level FlightAware ADS-B
Sat 05:58:42 PM 48.3850 26.8570 116° Southeast 482 555 31,000  Level FlightAware ADS-B
Sat 05:59:22 PM 48.3400 26.9660 122° Southeast 480 552 31,000  Level FlightAware ADS-B
Sat 05:59:57 PM 48.3000 27.0650 121° Southeast 480 552 31,000  Level FlightAware ADS-B
Sat 06:00:57 PM 48.2270 27.2410 122° Southeast 480 552 31,000  Level FlightAware ADS-B
Sat 06:01:47 PM 48.1710 27.3770 122° Southeast 479 551 31,000  Level FlightAware ADS-B
Sat 06:02:17 PM 48.1390 27.4540 122° Southeast 479 551 31,000  Level FlightAware ADS-B
Sat 06:03:07 PM 48.1030 27.5400 122° Southeast 479 551 31,000  Level FlightAware ADS-B
Sat 06:03:47 PM 48.0510 27.6620 122° Southeast 478 550 31,000  Level FlightAware ADS-B
Sat 06:04:27 PM 47.9970 27.7920 122° Southeast 475 547 31,000  Level FlightAware ADS-B
Sat 06:05:07 PM 47.9510 27.9000 122° Southeast 473 544 31,000  Level FlightAware ADS-B
Sat 06:05:57 PM 47.8920 28.0390 122° Southeast 473 544 31,000  Level FlightAware ADS-B
Sat 06:06:37 PM 47.8400 28.1600 123° Southeast 474 545 31,000  Level FlightAware ADS-B
Sat 06:07:17 PM 47.7950 28.2640 123° Southeast 474 545 31,000  Level FlightAware ADS-B
Sat 06:07:57 PM 47.7510 28.3680 122° Southeast 474 545 31,000  Level FlightAware ADS-B
Sat 06:08:47 PM 47.6920 28.5030 123° Southeast 472 543 31,000  Level FlightAware ADS-B
Sat 06:09:22 PM 47.6610 28.5770 122° Southeast 472 543 31,000  Level FlightAware ADS-B
Sat 06:10:02 PM 47.6220 28.6700 122° Southeast 472 543 31,000  Level FlightAware ADS-B
Sat 06:10:52 PM 47.5720 28.7870 122° Southeast 472 543 31,000  Level FlightAware ADS-B
Sat 06:11:32 PM 47.5330 28.8800 122° Southeast 472 543 31,000  Level FlightAware ADS-B
Sat 06:12:12 PM 47.4940 28.9730 122° Southeast 472 543 31,000  Level FlightAware ADS-B
Sat 06:12:52 PM 47.4540 29.0660 122° Southeast 472 543 31,000  Level FlightAware ADS-B
Sat 06:13:52 PM 47.3180 29.3540 125° Southeast 471 542 31,000  Level FlightAware ADS-B
Sat 06:14:37 PM 47.2560 29.4900 124° Southeast 470 541 31,000  Level FlightAware ADS-B
Sat 06:15:12 PM 47.2160 29.5800 123° Southeast 469 540 31,000  Level FlightAware ADS-B
Sat 06:15:57 PM 47.1670 29.6890 123° Southeast 469 540 31,000  Level FlightAware ADS-B
Sat 06:16:57 PM 47.0870 29.8620 124° Southeast 466 536 31,000  Level FlightAware ADS-B
Sat 06:17:32 PM 47.0670 29.9080 123° Southeast 466 536 31,000  Level FlightAware ADS-B
Sat 06:18:17 PM 46.9920 30.0710 124° Southeast 466 536 31,000  Level FlightAware ADS-B
Sat 06:19:02 PM 46.9380 30.1880 124° Southeast 466 536 31,000  Level FlightAware ADS-B
Sat 06:19:42 PM 46.8900 30.2930 124° Southeast 468 539 31,000  Level FlightAware ADS-B
Sat 06:20:27 PM 46.8360 30.4080 124° Southeast 468 539 31,000  Level FlightAware ADS-B
Sat 06:21:07 PM 46.7860 30.5150 124° Southeast 469 540 31,000  Level FlightAware ADS-B
Sat 06:21:47 PM 46.7380 30.6180 124° Southeast 469 540 31,000  Level FlightAware ADS-B
Sat 06:22:32 PM 46.6840 30.7330 124° Southeast 467 537 31,000  Level FlightAware ADS-B
Sat 06:23:12 PM 46.6380 30.8300 125° Southeast 466 536 31,000  Level FlightAware ADS-B
Sat 06:23:57 PM 46.5810 30.9510 124° Southeast 467 537 31,000  Level FlightAware ADS-B
Sat 06:24:37 PM 46.5310 31.0570 124° Southeast 467 537 31,000  Level FlightAware ADS-B
Sat 06:25:17 PM 46.4810 31.1600 125° Southeast 467 537 31,000  Level FlightAware ADS-B
Sat 06:26:02 PM 46.4260 31.2750 125° Southeast 467 537 31,000  Level FlightAware ADS-B
Sat 06:26:42 PM 46.3760 31.3790 125° Southeast 467 537 31,000  Level FlightAware ADS-B
Sat 06:27:27 PM 46.3210 31.4950 124° Southeast 466 536 31,000  Level FlightAware ADS-B
Sat 06:28:07 PM 46.2730 31.5920 126° Southeast 465 535 31,000  Level FlightAware ADS-B
Sat 06:28:47 PM 46.2220 31.6970 125° Southeast 466 536 31,000  Level FlightAware ADS-B
Sat 06:29:32 PM 46.1670 31.8100 125° Southeast 465 535 31,000  Level FlightAware ADS-B
Sat 06:30:12 PM 46.1160 31.9140 125° Southeast 466 536 31,000  Level FlightAware ADS-B
Sat 06:30:52 PM 46.0670 32.0130 125° Southeast 467 537 31,000  Level FlightAware ADS-B
Sat 06:31:37 PM 46.0110 32.1270 125° Southeast 468 539 31,000  Level FlightAware ADS-B
Sat 06:32:17 PM 45.9610 32.2290 125° Southeast 468 539 31,000  Level FlightAware ADS-B
Sat 06:33:02 PM 45.9050 32.3420 125° Southeast 467 537 31,000  Level FlightAware ADS-B
Sat 06:33:42 PM 45.8610 32.4510 120° Southeast 464 534 31,000  Level FlightAware ADS-B
Sat 06:34:27 PM 45.8190 32.5750 116° Southeast 465 535 31,000  Level FlightAware ADS-B
Sat 06:35:07 PM 45.7820 32.6860 116° Southeast 463 533 31,000  Level FlightAware ADS-B
Sat 06:35:47 PM 45.7450 32.7960 116° Southeast 465 535 31,000  Level FlightAware ADS-B
Sat 06:36:32 PM 45.7040 32.9200 115° Southeast 464 534 31,000  Level FlightAware ADS-B
Sat 06:37:12 PM 45.6660 33.0310 116° Southeast 464 534 31,000  Level FlightAware ADS-B
Sat 06:37:52 PM 45.6280 33.1410 116° Southeast 464 534 31,000  Level FlightAware ADS-B
Sat 06:38:37 PM 45.5880 33.2610 115° Southeast 465 535 31,000  Level FlightAware ADS-B
Sat 06:39:17 PM 45.5490 33.3740 116° Southeast 466 536 31,000  Level FlightAware ADS-B
Sat 06:40:02 PM 45.5050 33.4990 117° Southeast 466 536 31,000  Level FlightAware ADS-B
Sat 06:40:42 PM 45.4670 33.6080 116° Southeast 465 535 31,000  Level FlightAware ADS-B
Sat 06:41:27 PM 45.4240 33.7310 116° Southeast 464 534 31,000  Level FlightAware ADS-B
Sat 06:42:07 PM 45.3870 33.8380 116° Southeast 463 533 31,000  Level FlightAware ADS-B
Sat 06:42:47 PM 45.3480 33.9470 117° Southeast 463 533 31,000  Level FlightAware ADS-B
Sat 06:43:32 PM 45.3040 34.0700 117° Southeast 463 533 31,000  Level FlightAware ADS-B
Sat 06:44:12 PM 45.2670 34.1750 117° Southeast 462 532 31,000  Level FlightAware ADS-B
Sat 06:44:52 PM 45.2280 34.2840 117° Southeast 462 532 31,000  Level FlightAware ADS-B
Sat 06:45:37 PM 45.1830 34.4090 117° Southeast 463 533 31,000  Level FlightAware ADS-B
Sat 06:46:17 PM 45.1450 34.5140 117° Southeast 464 534 31,000  Level FlightAware ADS-B
Sat 06:47:02 PM 45.1000 34.6370 117° Southeast 464 534 31,000  Level FlightAware ADS-B
Sat 06:47:42 PM 45.0620 34.7440 117° Southeast 464 534 31,000  Level FlightAware ADS-B
Sat 06:48:22 PM 45.0220 34.8530 117° Southeast 463 533 31,000  Level FlightAware ADS-B
Sat 06:49:07 PM 44.9780 34.9730 117° Southeast 463 533 31,000  Level FlightAware ADS-B
Sat 06:49:47 PM 44.9380 35.0790 118° Southeast 463 533 31,000  Level FlightAware ADS-B
Sat 06:50:32 PM 44.8940 35.2010 117° Southeast 461 531 31,000  Level FlightAware ADS-B
Sat 06:51:12 PM 44.8540 35.3070 118° Southeast 461 531 31,000  Level FlightAware ADS-B
Sat 06:51:52 PM 44.8150 35.4130 117° Southeast 460 529 31,000  Level FlightAware ADS-B
Sat 06:52:37 PM 44.7700 35.5320 118° Southeast 461 531 31,000  Level FlightAware ADS-B
Sat 06:53:17 PM 44.7300 35.6370 118° Southeast 461 531 31,000  Level FlightAware ADS-B
Sat 06:54:02 PM 44.6850 35.7560 118° Southeast 462 532 31,000  Level FlightAware ADS-B
Sat 06:54:42 PM 44.6460 35.8610 118° Southeast 462 532 31,000  Level FlightAware ADS-B
Sat 06:55:27 PM 44.6000 35.9800 118° Southeast 461 531 31,000  Level FlightAware ADS-B
Sat 06:56:07 PM 44.5600 36.0860 118° Southeast 461 531 31,000  Level FlightAware ADS-B
Sat 06:56:47 PM 44.5200 36.1900 118° Southeast 462 532 31,000  Level FlightAware ADS-B
Sat 06:57:32 PM 44.4740 36.3100 118° Southeast 462 532 31,000  Level FlightAware ADS-B
Sat 06:58:12 PM 44.4340 36.4140 118° Southeast 462 532 31,000  Level FlightAware ADS-B
Sat 06:58:57 PM 44.3880 36.5320 119° Southeast 463 533 31,000  Level FlightAware ADS-B
Sat 06:59:37 PM 44.3460 36.6390 119° Southeast 463 533 31,000  Level FlightAware ADS-B
Sat 07:00:17 PM 44.3030 36.7400 121° Southeast 463 533 31,000  Level FlightAware ADS-B
Sat 07:01:02 PM 44.2530 36.8560 121° Southeast 465 535 31,000  Level FlightAware ADS-B
Sat 07:01:42 PM 44.2090 36.9590 121° Southeast 464 534 31,000  Level FlightAware ADS-B
Sat 07:02:27 PM 44.1610 37.0730 120° Southeast 466 536 31,000  Level FlightAware ADS-B
Sat 07:03:07 PM 44.1160 37.1760 121° Southeast 468 539 31,000  Level FlightAware ADS-B
Sat 07:03:42 PM 44.0850 37.2560 118° Southeast 467 537 31,000  Level FlightAware ADS-B
Sat 07:04:27 PM 44.0380 37.3800 118° Southeast 471 542 31,000  Level FlightAware ADS-B
Sat 07:05:02 PM 44.0050 37.4660 118° Southeast 472 543 31,000  Level FlightAware ADS-B
Sat 07:05:47 PM 43.9560 37.5900 119° Southeast 474 545 31,000  Level FlightAware ADS-B
Sat 07:06:27 PM 43.9140 37.6970 119° Southeast 476 548 31,000  Level FlightAware ADS-B
Sat 07:07:12 PM 43.8670 37.8150 119° Southeast 477 549 31,000  Level FlightAware ADS-B
Sat 07:07:52 PM 43.8240 37.9220 119° Southeast 477 549 31,000  Level FlightAware ADS-B
Sat 07:08:42 PM 43.7710 38.0540 119° Southeast 476 548 31,000  Level FlightAware ADS-B
Sat 07:09:27 PM 43.7200 38.1820 119° Southeast 474 545 31,000  Level FlightAware ADS-B
Sat 07:10:02 PM 43.6860 38.2680 119° Southeast 475 547 31,000  Level FlightAware ADS-B
Sat 07:10:42 PM 43.6420 38.3760 119° Southeast 478 550 31,000  Level FlightAware ADS-B
Sat 07:11:32 PM 43.5890 38.5070 119° Southeast 480 552 31,000  Level FlightAware ADS-B
Sat 07:12:12 PM 43.5460 38.6140 119° Southeast 481 554 31,000  Level FlightAware ADS-B
Sat 07:12:52 PM 43.5010 38.7230 120° Southeast 482 555 31,000  Level FlightAware ADS-B
Sat 07:13:37 PM 43.4520 38.8410 120° Southeast 483 556 31,000  Level FlightAware ADS-B
Sat 07:14:17 PM 43.4080 38.9490 119° Southeast 484 557 31,000  Level FlightAware ADS-B
Sat 07:14:57 PM 43.3630 39.0560 120° Southeast 483 556 31,000  Level FlightAware ADS-B
Sat 07:15:37 PM 43.3180 39.1670 119° Southeast 484 557 31,000  Level FlightAware ADS-B
Sat 07:16:27 PM 43.2690 39.2920 118° Southeast 482 555 31,000  Level FlightAware ADS-B
Sat 07:17:07 PM 43.2240 39.4060 118° Southeast 481 554 31,000  Level FlightAware ADS-B
Sat 07:17:42 PM 43.1840 39.5040 119° Southeast 478 550 31,000  Level FlightAware ADS-B
Sat 07:18:27 PM 43.1370 39.6210 119° Southeast 478 550 31,000  Level FlightAware ADS-B
Sat 07:19:07 PM 43.0930 39.7300 119° Southeast 477 549 31,000  Level FlightAware ADS-B
Sat 07:20:07 PM 43.0340 39.8760 119° Southeast 478 550 31,000  Level FlightAware ADS-B
Sat 07:20:52 PM 42.9800 40.0050 120° Southeast 477 549 31,000  Level FlightAware ADS-B
Sat 07:21:32 PM 42.9380 40.0970 122° Southeast 480 552 31,000  Level FlightAware ADS-B
Sat 07:22:12 PM 42.8880 40.2020 123° Southeast 481 554 31,000  Level FlightAware ADS-B
Sat 07:22:52 PM 42.8410 40.3040 122° Southeast 481 554 31,000  Level FlightAware ADS-B
Sat 07:23:32 PM 42.7930 40.4060 123° Southeast 478 550 31,000  Level FlightAware ADS-B
Sat 07:24:17 PM 42.7390 40.5190 123° Southeast 477 549 31,000  Level FlightAware ADS-B
Sat 07:24:57 PM 42.6900 40.6230 123° Southeast 476 548 31,000  Level FlightAware ADS-B
Sat 07:25:42 PM 42.6400 40.7290 123° Southeast 478 550 31,000  Level FlightAware ADS-B
Sat 07:26:27 PM 42.5840 40.8470 123° Southeast 481 554 31,000  Level FlightAware ADS-B
Sat 07:27:07 PM 42.5350 40.9490 123° Southeast 482 555 31,000  Level FlightAware ADS-B
Sat 07:27:47 PM 42.4870 41.0490 123° Southeast 481 554 31,000  Level FlightAware ADS-B
Sat 07:28:27 PM 42.4460 41.1370 122° Southeast 480 552 31,000  Level FlightAware ADS-B
Sat 07:29:17 PM 42.3960 41.2460 122° Southeast 480 552 31,000  Level FlightAware ADS-B
Sat 07:29:57 PM 42.3560 41.3320 122° Southeast 480 552 31,000  Level FlightAware ADS-B
Sat 07:30:37 PM 42.3160 41.4190 122° Southeast 480 552 31,000  Level FlightAware ADS-B
Sat 07:31:17 PM 42.2760 41.5050 122° Southeast 480 552 31,000  Level FlightAware ADS-B
Sat 07:31:57 PM 42.2360 41.5920 122° Southeast 480 552 31,000  Level FlightAware ADS-B
Sat 07:32:37 PM 42.1960 41.6780 122° Southeast 480 552 31,000  Level FlightAware ADS-B
Sat 07:33:27 PM 42.1460 41.7860 122° Southeast 480 552 31,000  Level FlightAware ADS-B
Sat 07:34:07 PM 42.1060 41.8730 122° Southeast 480 552 31,000  Level FlightAware ADS-B
Sat 07:34:47 PM 42.0660 41.9590 122° Southeast 480 552 31,000  Level FlightAware ADS-B
Sat 07:35:27 PM 42.0260 42.0450 122° Southeast 480 552 31,000  Level FlightAware ADS-B
Sat 07:36:17 PM 41.9760 42.1530 122° Southeast 480 552 31,000  Level FlightAware ADS-B
Sat 07:36:57 PM 41.9360 42.2390 122° Southeast 480 552 31,000  Level FlightAware ADS-B
Sat 07:37:37 PM 41.8960 42.3250 122° Southeast 480 552 31,000  Level FlightAware ADS-B
Sat 07:37:57 PM 41.8760 42.3680 122° Southeast 480 552 31,000 Level FlightAware ADS-B
Sat 07:40:00 PM 41.7883 42.7113 109° East  Level Estimated
Sat 07:41:00 PM 41.7452 42.8784 109° East  Level Estimated
Sat 07:42:00 PM 41.7018 43.0452 109° East  Level Estimated
Sat 07:43:00 PM 41.6581 43.2119 109° East  Level Estimated
Sat 07:44:00 PM 41.6143 43.3783 109° East  Level Estimated
Sat 07:45:00 PM 41.5702 43.5445 109° East  Level Estimated
Sat 07:46:00 PM 41.5258 43.7105 110° East  Level Estimated
Sat 07:47:00 PM 41.4812 43.8762 110° East  Level Estimated
Sat 07:48:00 PM 41.4364 44.0418 110° East  Level Estimated
Sat 07:49:00 PM 41.3914 44.2070 110° East  Level Estimated
Sat 07:50:00 PM 41.3461 44.3721 110° East  Level Estimated
Sat 07:51:00 PM 41.3005 44.5369 110° East  Level Estimated
Sat 07:52:00 PM 41.2548 44.7015 110° East  Level Estimated
Sat 07:53:00 PM 41.2088 44.8659 110° East  Level Estimated
Sat 07:54:00 PM 41.1625 45.0300 110° East  Level Estimated
Sat 07:55:00 PM 41.1161 45.1939 111° Southeast  Level Estimated
Sat 07:56:00 PM 41.0694 45.3576 111° Southeast  Level Estimated
Sat 07:57:00 PM 41.0224 45.5210 111° Southeast  Level Estimated
Sat 07:58:00 PM 40.9753 45.6842 111° Southeast  Level Estimated
Sat 07:59:00 PM 40.9279 45.8472 111° Southeast  Level Estimated
Sat 08:00:00 PM 40.8803 46.0099 111° Southeast  Level Estimated
Sat 08:01:00 PM 40.8324 46.1725 111° Southeast  Level Estimated
Sat 08:02:00 PM 40.7844 46.3347 111° Southeast  Level Estimated
Sat 08:03:00 PM 40.7360 46.4967 111° Southeast  Level Estimated
Sat 08:04:00 PM 40.6875 46.6586 112° Southeast  Level Estimated
Sat 08:05:00 PM 40.6388 46.8201 112° Southeast  Level Estimated
Sat 08:06:00 PM 40.5898 46.9814 112° Southeast  Level Estimated
Sat 08:07:00 PM 40.5406 47.1425 112° Southeast  Level Estimated
Sat 08:08:00 PM 40.4912 47.3034 112° Southeast  Level Estimated
Sat 08:09:00 PM 40.4415 47.4640 112° Southeast  Level Estimated
Sat 08:10:00 PM 40.3916 47.6244 112° Southeast  Level Estimated
Sat 08:11:00 PM 40.3415 47.7845 112° Southeast  Level Estimated
Sat 08:12:00 PM 40.2912 47.9444 112° Southeast  Level Estimated
Sat 08:13:00 PM 40.2407 48.1040 112° Southeast  Level Estimated
Sat 08:14:00 PM 40.1900 48.2635 113° Southeast  Level Estimated
Sat 08:15:00 PM 40.1390 48.4226 113° Southeast  Level Estimated
Sat 08:16:00 PM 40.0878 48.5816 113° Southeast  Level Estimated
Sat 08:17:00 PM 40.0364 48.7403 113° Southeast  Level Estimated
Sat 08:18:00 PM 39.9848 48.8988 113° Southeast  Level Estimated
Sat 08:19:00 PM 39.9329 49.0570 113° Southeast  Level Estimated
Sat 08:20:00 PM 39.8809 49.2150 113° Southeast  Level Estimated
Sat 08:21:00 PM 39.8286 49.3727 113° Southeast  Level Estimated
Sat 08:22:00 PM 39.7762 49.5302 113° Southeast  Level Estimated
Sat 08:23:00 PM 39.7235 49.6875 113° Southeast  Level Estimated
Sat 08:24:00 PM 39.6706 49.8445 114° Southeast  Level Estimated
Sat 08:25:00 PM 39.6175 50.0013 114° Southeast  Level Estimated
Sat 08:26:00 PM 39.5641 50.1578 114° Southeast  Level Estimated
Sat 08:27:00 PM 39.5106 50.3141 114° Southeast  Level Estimated
Sat 08:28:00 PM 39.4569 50.4701 114° Southeast  Level Estimated
Sat 08:29:00 PM 39.4029 50.6260 114° Southeast  Level Estimated
Sat 08:30:00 PM 39.3488 50.7816 114° Southeast  Level Estimated
Sat 08:31:00 PM 39.2944 50.9369 114° Southeast  Level Estimated
Sat 08:32:00 PM 39.2398 51.0920 114° Southeast  Level Estimated
Sat 08:33:00 PM 39.1851 51.2468 114° Southeast  Level Estimated
Sat 08:34:00 PM 39.1301 51.4014 115° Southeast  Level Estimated
Sat 08:35:00 PM 39.0749 51.5558 115° Southeast  Level Estimated
Sat 08:36:00 PM 39.0195 51.7099 115° Southeast  Level Estimated
Sat 08:37:00 PM 38.9639 51.8638 115° Southeast  Level Estimated
Sat 08:38:00 PM 38.9081 52.0175 115° Southeast  Level Estimated
Sat 08:39:00 PM 38.8521 52.1709 115° Southeast  Level Estimated
Sat 08:40:00 PM 38.7959 52.3240 115° Southeast  Level Estimated
Sat 08:41:00 PM 38.7396 52.4770 115° Southeast  Level Estimated
Sat 08:42:00 PM 38.6830 52.6296 115° Southeast  Level Estimated
Sat 08:43:00 PM 38.6262 52.7821 115° Southeast  Level Estimated
Sat 08:44:00 PM 38.5692 52.9343 116° Southeast  Level Estimated
Sat 08:45:00 PM 38.5120 53.0862 116° Southeast  Level Estimated
Sat 08:46:00 PM 38.4546 53.2379 116° Southeast  Level Estimated
Sat 08:47:00 PM 38.3970 53.3894 116° Southeast  Level Estimated
Sat 08:48:00 PM 38.3393 53.5406 116° Southeast  Level Estimated
Sat 08:49:00 PM 38.2813 53.6916 116° Southeast  Level Estimated
Sat 08:50:00 PM 38.2231 53.8424 116° Southeast  Level Estimated
Sat 08:51:00 PM 38.1648 53.9929 116° Southeast  Level Estimated
Sat 08:52:00 PM 38.1063 54.1431 116° Southeast  Level Estimated
Sat 08:53:00 PM 38.0475 54.2931 116° Southeast  Level Estimated
Sat 08:54:00 PM 37.9886 54.4429 116° Southeast  Level Estimated
Sat 08:55:00 PM 37.9295 54.5924 117° Southeast  Level Estimated
Sat 08:56:00 PM 37.8702 54.7417 117° Southeast  Level Estimated
Sat 08:57:00 PM 37.8107 54.8908 117° Southeast  Level Estimated
Sat 08:58:00 PM 37.7510 55.0396 117° Southeast  Level Estimated
Sat 08:59:00 PM 37.6912 55.1882 117° Southeast  Level Estimated
Sat 09:00:00 PM 37.6311 55.3366 117° Southeast  Level Estimated
Sat 09:01:00 PM 37.5709 55.4846 117° Southeast  Level Estimated
Sat 09:02:00 PM 37.5105 55.6325 117° Southeast  Level Estimated
Sat 09:03:00 PM 37.4499 55.7801 117° Southeast  Level Estimated
Sat 09:04:00 PM 37.3891 55.9275 117° Southeast  Level Estimated
Sat 09:05:00 PM 37.3281 56.0746 117° Southeast  Level Estimated
Sat 09:06:00 PM 37.2669 56.2215 118° Southeast  Level Estimated
Sat 09:07:00 PM 37.2056 56.3682 118° Southeast  Level Estimated
Sat 09:08:00 PM 37.1441 56.5146 118° Southeast  Level Estimated
Sat 09:09:00 PM 37.0824 56.6608 118° Southeast  Level Estimated
Sat 09:10:00 PM 37.0205 56.8068 118° Southeast  Level Estimated
Sat 09:11:00 PM 36.9585 56.9525 118° Southeast  Level Estimated
Sat 09:12:00 PM 36.8963 57.0979 118° Southeast  Level Estimated
Sat 09:13:00 PM 36.8339 57.2432 118° Southeast  Level Estimated
Sat 09:14:00 PM 36.7713 57.3882 118° Southeast  Level Estimated
Sat 09:15:00 PM 36.7085 57.5329 118° Southeast  Level Estimated
Sat 09:16:00 PM 36.6456 57.6775 118° Southeast  Level Estimated
Sat 09:17:00 PM 36.5825 57.8218 119° Southeast  Level Estimated
Sat 09:18:00 PM 36.5192 57.9658 119° Southeast  Level Estimated
Sat 09:19:00 PM 36.4557 58.1096 119° Southeast  Level Estimated
Sat 09:20:00 PM 36.3921 58.2532 119° Southeast  Level Estimated
Sat 09:21:00 PM 36.3283 58.3965 119° Southeast  Level Estimated
Sat 09:22:00 PM 36.2644 58.5397 119° Southeast  Level Estimated
Sat 09:23:00 PM 36.2002 58.6825 119° Southeast  Level Estimated
Sat 09:24:00 PM 36.1359 58.8252 119° Southeast  Level Estimated
Sat 09:25:00 PM 36.0714 58.9676 119° Southeast  Level Estimated
Sat 09:26:00 PM 36.0068 59.1098 119° Southeast  Level Estimated
Sat 09:27:00 PM 35.9420 59.2517 119° Southeast  Level Estimated
Sat 09:28:00 PM 35.8770 59.3934 119° Southeast  Level Estimated
Sat 09:29:00 PM 35.8118 59.5349 120° Southeast  Level Estimated
Sat 09:30:00 PM 35.7465 59.6761 120° Southeast  Level Estimated
Sat 09:31:00 PM 35.6810 59.8171 120° Southeast  Level Estimated
Sat 09:32:00 PM 35.6154 59.9579 120° Southeast  Level Estimated
Sat 09:33:00 PM 35.5496 60.0985 120° Southeast  Level Estimated
Sat 09:34:00 PM 35.4836 60.2388 120° Southeast  Level Estimated
Sat 09:35:00 PM 35.4175 60.3789 120° Southeast  Level Estimated
Sat 09:36:00 PM 35.3512 60.5187 120° Southeast  Level Estimated
Sat 09:37:00 PM 35.2848 60.6584 120° Southeast  Level Estimated
Sat 09:38:00 PM 35.2182 60.7978 120° Southeast  Level Estimated
Sat 09:39:00 PM 35.1514 60.9369 120° Southeast  Level Estimated
Sat 09:40:00 PM 35.0845 61.0759 120° Southeast  Level Estimated
Sat 09:41:00 PM 35.0174 61.2146 121° Southeast  Level Estimated
Sat 09:42:00 PM 34.9501 61.3531 121° Southeast  Level Estimated
Sat 09:43:00 PM 34.8827 61.4913 121° Southeast  Level Estimated
Sat 09:44:00 PM 34.8152 61.6294 121° Southeast  Level Estimated
Sat 09:45:00 PM 34.7475 61.7672 121° Southeast  Level Estimated
Sat 09:46:00 PM 34.6796 61.9048 121° Southeast  Level Estimated
Sat 09:47:00 PM 34.6116 62.0421 121° Southeast  Level Estimated
Sat 09:48:00 PM 34.5434 62.1792 121° Southeast  Level Estimated
Sat 09:49:00 PM 34.4751 62.3161 121° Southeast  Level Estimated
Sat 09:50:00 PM 34.4066 62.4528 121° Southeast  Level Estimated
Sat 09:51:00 PM 34.3380 62.5893 121° Southeast  Level Estimated
Sat 09:52:00 PM 34.2692 62.7255 121° Southeast  Level Estimated
Sat 09:53:00 PM 34.2002 62.8615 121° Southeast  Level Estimated
Sat 09:54:00 PM 34.1311 62.9973 122° Southeast  Level Estimated
Sat 09:55:00 PM 34.0619 63.1329 122° Southeast  Level Estimated
Sat 09:56:00 PM 33.9925 63.2682 122° Southeast  Level Estimated
Sat 09:57:00 PM 33.9230 63.4033 122° Southeast  Level Estimated
Sat 09:58:00 PM 33.8533 63.5382 122° Southeast  Level Estimated
Sat 09:59:00 PM 33.7835 63.6729 122° Southeast  Level Estimated
Sat 10:00:00 PM 33.7135 63.8074 122° Southeast  Level Estimated
Sat 10:01:00 PM 33.6434 63.9416 122° Southeast  Level Estimated
Sat 10:02:00 PM 33.5732 64.0756 122° Southeast  Level Estimated
Sat 10:03:00 PM 33.5027 64.2094 122° Southeast  Level Estimated
Sat 10:04:00 PM 33.4322 64.3430 122° Southeast  Level Estimated
Sat 10:05:00 PM 33.3615 64.4764 122° Southeast  Level Estimated
Sat 10:06:00 PM 33.2907 64.6095 122° Southeast  Level Estimated
Sat 10:07:00 PM 33.2197 64.7425 123° Southeast  Level Estimated
Sat 10:08:00 PM 33.1486 64.8752 123° Southeast  Level Estimated
Sat 10:09:00 PM 33.0773 65.0077 123° Southeast  Level Estimated
Sat 10:10:00 PM 33.0059 65.1400 123° Southeast  Level Estimated
Sat 10:11:00 PM 32.9344 65.2721 123° Southeast  Level Estimated
Sat 10:12:00 PM 32.8627 65.4039 123° Southeast  Level Estimated
Sat 10:13:00 PM 32.7909 65.5356 123° Southeast  Level Estimated
Sat 10:14:00 PM 32.7189 65.6670 123° Southeast  Level Estimated
Sat 10:15:00 PM 32.6468 65.7983 123° Southeast  Level Estimated
Sat 10:16:00 PM 32.5746 65.9293 123° Southeast  Level Estimated
Sat 10:17:00 PM 32.5023 66.0601 123° Southeast  Level Estimated
Sat 10:18:00 PM 32.4298 66.1907 123° Southeast  Level Estimated
Sat 10:19:00 PM 32.3571 66.3210 123° Southeast  Level Estimated
Sat 10:20:00 PM 32.2844 66.4512 123° Southeast  Level Estimated
Sat 10:21:00 PM 32.2115 66.5812 124° Southeast  Level Estimated
Sat 10:22:00 PM 32.1384 66.7109 124° Southeast  Level Estimated
Sat 10:23:00 PM 32.0653 66.8405 124° Southeast  Level Estimated
Sat 10:24:00 PM 31.9920 66.9698 124° Southeast  Level Estimated
Sat 10:25:00 PM 31.9186 67.0990 124° Southeast  Level Estimated
Sat 10:26:00 PM 31.8450 67.2279 124° Southeast  Level Estimated
Sat 10:27:00 PM 31.7713 67.3566 124° Southeast  Level Estimated
Sat 10:28:00 PM 31.6975 67.4851 124° Southeast  Level Estimated
Sat 10:29:00 PM 31.6236 67.6134 124° Southeast  Level Estimated
Sat 10:30:00 PM 31.5495 67.7415 124° Southeast  Level Estimated
Sat 10:31:00 PM 31.4753 67.8695 124° Southeast  Level Estimated
Sat 10:32:00 PM 31.4010 67.9971 124° Southeast  Level Estimated
Sat 10:33:00 PM 31.3265 68.1246 124° Southeast  Level Estimated
Sat 10:34:00 PM 31.2519 68.2520 124° Southeast  Level Estimated
Sat 10:35:00 PM 31.1772 68.3791 124° Southeast  Level Estimated
Sat 10:36:00 PM 31.1024 68.5060 125° Southeast  Level Estimated
Sat 10:37:00 PM 31.0275 68.6327 125° Southeast  Level Estimated
Sat 10:38:00 PM 30.9524 68.7591 125° Southeast  Level Estimated
Sat 10:39:00 PM 30.8772 68.8855 125° Southeast  Level Estimated
Sat 10:40:00 PM 30.8019 69.0116 125° Southeast  Level Estimated
Sat 10:41:00 PM 30.7264 69.1375 125° Southeast  Level Estimated
Sat 10:42:00 PM 30.6509 69.2632 125° Southeast  Level Estimated
Sat 10:43:00 PM 30.5752 69.3887 125° Southeast  Level Estimated
Sat 10:44:00 PM 30.4994 69.5140 125° Southeast  Level Estimated
Sat 10:45:00 PM 30.4235 69.6391 125° Southeast  Level Estimated
Sat 10:46:00 PM 30.3474 69.7640 125° Southeast  Level Estimated
Sat 10:47:00 PM 30.2713 69.8887 125° Southeast  Level Estimated
Sat 10:48:00 PM 30.1950 70.0133 125° Southeast  Level Estimated
Sat 10:49:00 PM 30.1186 70.1376 125° Southeast  Level Estimated
Sat 10:50:00 PM 30.0421 70.2618 125° Southeast  Level Estimated
Sat 10:51:00 PM 29.9655 70.3857 125° Southeast  Level Estimated
Sat 10:52:00 PM 29.8887 70.5095 126° Southeast  Level Estimated
Sat 10:53:00 PM 29.8118 70.6331 126° Southeast  Level Estimated
Sat 10:54:00 PM 29.7349 70.7565 126° Southeast  Level Estimated
Sat 10:55:00 PM 29.6578 70.8797 126° Southeast  Level Estimated
Sat 10:56:00 PM 29.5806 71.0027 126° Southeast  Level Estimated
Sat 10:57:00 PM 29.5033 71.1255 126° Southeast  Level Estimated
Sat 10:58:00 PM 29.4258 71.2481 126° Southeast  Level Estimated
Sat 10:59:00 PM 29.3483 71.3706 126° Southeast  Level Estimated
Sat 11:00:00 PM 29.2706 71.4929 126° Southeast  Level Estimated
Sat 11:01:00 PM 29.1929 71.6149 126° Southeast  Level Estimated
Sat 11:02:00 PM 29.1150 71.7368 126° Southeast  Level Estimated
Sat 11:03:00 PM 29.0370 71.8585 126° Southeast  Level Estimated
Sat 11:04:00 PM 28.9589 71.9800 126° Southeast  Level Estimated
Sat 11:05:00 PM 28.8807 72.1014 126° Southeast  Level Estimated
Sat 11:06:00 PM 28.8024 72.2225 126° Southeast  Level Estimated
Sat 11:07:00 PM 28.7240 72.3435 126° Southeast  Level Estimated
Sat 11:08:00 PM 28.6454 72.4643 127° Southeast  Level Estimated
Sat 11:09:00 PM 28.5668 72.5849 127° Southeast  Level Estimated
Sat 11:10:00 PM 28.4881 72.7053 127° Southeast  Level Estimated
Sat 11:11:00 PM 28.4092 72.8256 127° Southeast  Level Estimated
Sat 11:12:00 PM 28.3302 72.9456 127° Southeast  Level Estimated
Sat 11:13:00 PM 28.2512 73.0655 127° Southeast  Level Estimated
Sat 11:14:00 PM 28.1720 73.1852 127° Southeast  Level Estimated
Sat 11:15:00 PM 28.0928 73.3048 127° Southeast  Level Estimated
Sat 11:16:00 PM 28.0134 73.4241 127° Southeast  Level Estimated
Sat 11:17:00 PM 27.9339 73.5433 127° Southeast  Level Estimated
Sat 11:18:00 PM 27.8543 73.6623 127° Southeast  Level Estimated
Sat 11:19:00 PM 27.7747 73.7812 127° Southeast  Level Estimated
Sat 11:20:00 PM 27.6949 73.8998 127° Southeast  Level Estimated
Sat 11:21:00 PM 27.6150 74.0183 127° Southeast  Level Estimated
Sat 11:22:00 PM 27.5350 74.1366 127° Southeast  Level Estimated
Sat 11:23:00 PM 27.4549 74.2548 127° Southeast  Level Estimated
Sat 11:24:00 PM 27.3748 74.3727 127° Southeast  Level Estimated
Sat 11:25:00 PM 27.2945 74.4905 127° Southeast  Level Estimated
Sat 11:26:00 PM 27.2141 74.6082 128° Southeast  Level Estimated
Sat 11:27:00 PM 27.1336 74.7256 128° Southeast  Level Estimated
Sat 11:28:00 PM 27.0530 74.8429 128° Southeast  Level Estimated
Sat 11:29:00 PM 26.9724 74.9601 128° Southeast  Level Estimated
Sat 11:30:00 PM 26.8916 75.0770 128° Southeast  Level Estimated
Sat 11:31:00 PM 26.8107 75.1938 128° Southeast  Level Estimated
Sat 11:32:00 PM 26.7298 75.3104 128° Southeast  Level Estimated
Sat 11:33:00 PM 26.6487 75.4269 128° Southeast  Level Estimated
Sat 11:34:00 PM 26.5676 75.5432 128° Southeast  Level Estimated
Sat 11:35:00 PM 26.4863 75.6593 128° Southeast  Level Estimated
Sat 11:36:00 PM 26.4050 75.7753 128° Southeast  Level Estimated
Sat 11:37:00 PM 26.3236 75.8911 128° Southeast  Level Estimated
Sat 11:38:00 PM 26.2421 76.0067 128° Southeast  Level Estimated
Sat 11:39:00 PM 26.1604 76.1221 128° Southeast  Level Estimated
Sat 11:40:00 PM 26.0787 76.2375 128° Southeast  Level Estimated
Sat 11:41:00 PM 25.9969 76.3526 128° Southeast  Level Estimated
Sat 11:42:00 PM 25.9150 76.4676 128° Southeast  Level Estimated
Sat 11:43:00 PM 25.8331 76.5824 128° Southeast  Level Estimated
Sat 11:44:00 PM 25.7510 76.6971 128° Southeast  Level Estimated
Sat 11:45:00 PM 25.6688 76.8116 129° Southeast  Level Estimated
Sat 11:46:00 PM 25.5866 76.9260 129° Southeast  Level Estimated
Sat 11:47:00 PM 25.5042 77.0402 129° Southeast  Level Estimated
Sat 11:48:00 PM 25.4218 77.1542 129° Southeast  Level Estimated
Sat 11:49:00 PM 25.3393 77.2681 129° Southeast  Level Estimated
Sat 11:50:00 PM 25.2567 77.3818 129° Southeast  Level Estimated
Sat 11:51:00 PM 25.1740 77.4954 129° Southeast  Level Estimated
Sat 11:52:00 PM 25.0912 77.6088 129° Southeast  Level Estimated
Sat 11:53:00 PM 25.0084 77.7221 129° Southeast  Level Estimated
Sat 11:54:00 PM 24.9254 77.8352 129° Southeast  Level Estimated
Sat 11:55:00 PM 24.8424 77.9482 129° Southeast  Level Estimated
Sat 11:56:00 PM 24.7593 78.0610 129° Southeast  Level Estimated
Sat 11:57:00 PM 24.6761 78.1736 129° Southeast  Level Estimated
Sat 11:58:00 PM 24.5928 78.2861 129° Southeast  Level Estimated
Sat 11:59:00 PM 24.5094 78.3985 129° Southeast  Level Estimated
Sun 12:00:00 AM 24.4259 78.5107 129° Southeast  Level Estimated
Sun 12:01:00 AM 24.3424 78.6228 129° Southeast  Level Estimated
Sun 12:02:00 AM 24.2588 78.7347 129° Southeast  Level Estimated
Sun 12:03:00 AM 24.1751 78.8465 129° Southeast  Level Estimated
Sun 12:04:00 AM 24.0913 78.9581 129° Southeast  Level Estimated
Sun 12:05:00 AM 24.0075 79.0695 129° Southeast  Level Estimated
Sun 12:06:00 AM 23.9235 79.1809 130° Southeast  Level Estimated
Sun 12:07:00 AM 23.8395 79.2921 130° Southeast  Level Estimated
Sun 12:08:00 AM 23.7554 79.4031 130° Southeast  Level Estimated
Sun 12:09:00 AM 23.6712 79.5140 130° Southeast  Level Estimated
Sun 12:10:00 AM 23.5870 79.6248 130° Southeast  Level Estimated
Sun 12:11:00 AM 23.5026 79.7354 130° Southeast  Level Estimated
Sun 12:12:00 AM 23.4182 79.8458 130° Southeast  Level Estimated
Sun 12:13:00 AM 23.3337 79.9562 130° Southeast  Level Estimated
Sun 12:14:00 AM 23.2491 80.0664 130° Southeast  Level Estimated
Sun 12:15:00 AM 23.1645 80.1764 130° Southeast  Level Estimated
Sun 12:16:00 AM 23.0798 80.2863 130° Southeast  Level Estimated
Sun 12:17:00 AM 22.9950 80.3961 130° Southeast  Level Estimated
Sun 12:18:00 AM 22.9101 80.5057 130° Southeast  Level Estimated
Sun 12:19:00 AM 22.8251 80.6152 130° Southeast  Level Estimated
Sun 12:20:00 AM 22.7401 80.7246 130° Southeast  Level Estimated
Sun 12:21:00 AM 22.6550 80.8338 130° Southeast  Level Estimated
Sun 12:22:00 AM 22.5698 80.9429 130° Southeast  Level Estimated
Sun 12:23:00 AM 22.4846 81.0518 130° Southeast  Level Estimated
Sun 12:24:00 AM 22.3993 81.1607 130° Southeast  Level Estimated
Sun 12:25:00 AM 22.3139 81.2693 130° Southeast  Level Estimated
Sun 12:26:00 AM 22.2284 81.3779 130° Southeast  Level Estimated
Sun 12:27:00 AM 22.1429 81.4863 130° Southeast  Level Estimated
Sun 12:28:00 AM 22.0572 81.5946 130° Southeast  Level Estimated
Sun 12:29:00 AM 21.9716 81.7028 130° Southeast  Level Estimated
Sun 12:30:00 AM 21.8858 81.8108 131° Southeast  Level Estimated
Sun 12:31:00 AM 21.8000 81.9187 131° Southeast  Level Estimated
Sun 12:32:00 AM 21.7141 82.0265 131° Southeast  Level Estimated
Sun 12:33:00 AM 21.6282 82.1341 131° Southeast  Level Estimated
Sun 12:34:00 AM 21.5421 82.2416 131° Southeast  Level Estimated
Sun 12:35:00 AM 21.4560 82.3490 131° Southeast  Level Estimated
Sun 12:36:00 AM 21.3699 82.4563 131° Southeast  Level Estimated
Sun 12:37:00 AM 21.2836 82.5634 131° Southeast  Level Estimated
Sun 12:38:00 AM 21.1973 82.6704 131° Southeast  Level Estimated
Sun 12:39:00 AM 21.1109 82.7773 131° Southeast  Level Estimated
Sun 12:40:00 AM 21.0245 82.8840 131° Southeast  Level Estimated
Sun 12:41:00 AM 20.9380 82.9907 131° Southeast  Level Estimated
Sun 12:42:00 AM 20.8514 83.0972 131° Southeast  Level Estimated
Sun 12:43:00 AM 20.7648 83.2036 131° Southeast  Level Estimated
Sun 12:44:00 AM 20.6781 83.3098 131° Southeast  Level Estimated
Sun 12:45:00 AM 20.5913 83.4160 131° Southeast  Level Estimated
Sun 12:46:00 AM 20.5045 83.5220 131° Southeast  Level Estimated
Sun 12:47:00 AM 20.4176 83.6279 131° Southeast  Level Estimated
Sun 12:48:00 AM 20.3306 83.7337 131° Southeast  Level Estimated
Sun 12:49:00 AM 20.2436 83.8393 131° Southeast  Level Estimated
Sun 12:50:00 AM 20.1565 83.9449 131° Southeast  Level Estimated
Sun 12:51:00 AM 20.0694 84.0503 131° Southeast  Level Estimated
Sun 12:52:00 AM 19.9822 84.1556 131° Southeast  Level Estimated
Sun 12:53:00 AM 19.8949 84.2608 131° Southeast  Level Estimated
Sun 12:54:00 AM 19.8076 84.3659 131° Southeast  Level Estimated
Sun 12:55:00 AM 19.7202 84.4709 131° Southeast  Level Estimated
Sun 12:56:00 AM 19.6327 84.5757 132° Southeast  Level Estimated
Sun 12:57:00 AM 19.5452 84.6804 132° Southeast  Level Estimated
Sun 12:58:00 AM 19.4576 84.7851 132° Southeast  Level Estimated
Sun 12:59:00 AM 19.3700 84.8896 132° Southeast  Level Estimated
Sun 01:00:00 AM 19.2823 84.9940 132° Southeast  Level Estimated
Sun 01:01:00 AM 19.1945 85.0983 132° Southeast  Level Estimated
Sun 01:02:00 AM 19.1067 85.2024 132° Southeast  Level Estimated
Sun 01:03:00 AM 19.0188 85.3065 132° Southeast  Level Estimated
Sun 01:04:00 AM 18.9309 85.4104 132° Southeast  Level Estimated
Sun 01:05:00 AM 18.8429 85.5143 132° Southeast  Level Estimated
Sun 01:06:00 AM 18.7548 85.6180 132° Southeast  Level Estimated
Sun 01:07:00 AM 18.6667 85.7216 132° Southeast  Level Estimated
Sun 01:08:00 AM 18.5786 85.8251 132° Southeast  Level Estimated
Sun 01:09:00 AM 18.4904 85.9286 132° Southeast  Level Estimated
Sun 01:10:00 AM 18.4021 86.0319 132° Southeast  Level Estimated
Sun 01:11:00 AM 18.3138 86.1351 132° Southeast  Level Estimated
Sun 01:12:00 AM 18.2254 86.2382 132° Southeast  Level Estimated
Sun 01:13:00 AM 18.1369 86.3411 132° Southeast  Level Estimated
Sun 01:14:00 AM 18.0484 86.4440 132° Southeast  Level Estimated
Sun 01:15:00 AM 17.9599 86.5468 132° Southeast  Level Estimated
Sun 01:16:00 AM 17.8713 86.6495 132° Southeast  Level Estimated
Sun 01:17:00 AM 17.7826 86.7521 132° Southeast  Level Estimated
Sun 01:18:00 AM 17.6939 86.8545 132° Southeast  Level Estimated
Sun 01:19:00 AM 17.6052 86.9569 132° Southeast  Level Estimated
Sun 01:20:00 AM 17.5163 87.0592 132° Southeast  Level Estimated
Sun 01:21:00 AM 17.4275 87.1613 132° Southeast  Level Estimated
Sun 01:22:00 AM 17.3386 87.2634 132° Southeast  Level Estimated
Sun 01:23:00 AM 17.2496 87.3654 132° Southeast  Level Estimated
Sun 01:24:00 AM 17.1606 87.4673 132° Southeast  Level Estimated
Sun 01:25:00 AM 17.0715 87.5690 132° Southeast  Level Estimated
Sun 01:26:00 AM 16.9824 87.6707 132° Southeast  Level Estimated
Sun 01:27:00 AM 16.8932 87.7723 133° Southeast  Level Estimated
Sun 01:28:00 AM 16.8039 87.8738 133° Southeast  Level Estimated
Sun 01:29:00 AM 16.7147 87.9752 133° Southeast  Level Estimated
Sun 01:30:00 AM 16.6254 88.0765 133° Southeast  Level Estimated
Sun 01:31:00 AM 16.5360 88.1777 133° Southeast  Level Estimated
Sun 01:32:00 AM 16.4466 88.2788 133° Southeast  Level Estimated
Sun 01:33:00 AM 16.3571 88.3798 133° Southeast  Level Estimated
Sun 01:34:00 AM 16.2676 88.4807 133° Southeast  Level Estimated
Sun 01:35:00 AM 16.1780 88.5816 133° Southeast  Level Estimated
Sun 01:36:00 AM 16.0884 88.6823 133° Southeast  Level Estimated
Sun 01:37:00 AM 15.9987 88.7830 133° Southeast  Level Estimated
Sun 01:38:00 AM 15.9090 88.8835 133° Southeast  Level Estimated
Sun 01:39:00 AM 15.8193 88.9840 133° Southeast  Level Estimated
Sun 01:40:00 AM 15.7295 89.0844 133° Southeast  Level Estimated
Sun 01:41:00 AM 15.6396 89.1846 133° Southeast  Level Estimated
Sun 01:42:00 AM 15.5497 89.2849 133° Southeast  Level Estimated
Sun 01:43:00 AM 15.4598 89.3850 133° Southeast  Level Estimated
Sun 01:44:00 AM 15.3698 89.4850 133° Southeast  Level Estimated
Sun 01:45:00 AM 15.2798 89.5849 133° Southeast  Level Estimated
Sun 01:46:00 AM 15.1897 89.6848 133° Southeast  Level Estimated
Sun 01:47:00 AM 15.0996 89.7846 133° Southeast  Level Estimated
Sun 01:48:00 AM 15.0094 89.8843 133° Southeast  Level Estimated
Sun 01:49:00 AM 14.9192 89.9839 133° Southeast  Level Estimated
Sun 01:50:00 AM 14.8290 90.0834 133° Southeast  Level Estimated
Sun 01:51:00 AM 14.7387 90.1828 133° Southeast  Level Estimated
Sun 01:52:00 AM 14.6484 90.2822 133° Southeast  Level Estimated
Sun 01:53:00 AM 14.5580 90.3814 133° Southeast  Level Estimated
Sun 01:54:00 AM 14.4676 90.4806 133° Southeast  Level Estimated
Sun 01:55:00 AM 14.3771 90.5797 133° Southeast  Level Estimated
Sun 01:56:00 AM 14.2866 90.6788 133° Southeast  Level Estimated
Sun 01:57:00 AM 14.1961 90.7777 133° Southeast  Level Estimated
Sun 01:58:00 AM 14.1055 90.8766 133° Southeast  Level Estimated
Sun 01:59:00 AM 14.0149 90.9754 133° Southeast  Level Estimated
Sun 02:00:00 AM 13.9242 91.0741 133° Southeast  Level Estimated
Sun 02:01:00 AM 13.8335 91.1727 133° Southeast  Level Estimated
Sun 02:02:00 AM 13.7428 91.2713 133° Southeast  Level Estimated
Sun 02:03:00 AM 13.6520 91.3698 133° Southeast  Level Estimated
Sun 02:04:00 AM 13.5612 91.4682 134° Southeast  Level Estimated
Sun 02:05:00 AM 13.4704 91.5665 134° Southeast  Level Estimated
Sun 02:06:00 AM 13.3795 91.6648 134° Southeast  Level Estimated
Sun 02:07:00 AM 13.2885 91.7629 134° Southeast  Level Estimated
Sun 02:08:00 AM 13.1976 91.8611 134° Southeast  Level Estimated
Sun 02:09:00 AM 13.1066 91.9591 134° Southeast  Level Estimated
Sun 02:10:00 AM 13.0155 92.0571 134° Southeast  Level Estimated
Sun 02:11:00 AM 12.9244 92.1550 134° Southeast  Level Estimated
Sun 02:12:00 AM 12.8333 92.2528 134° Southeast  Level Estimated
Sun 02:13:00 AM 12.7422 92.3505 134° Southeast  Level Estimated
Sun 02:14:00 AM 12.6510 92.4482 134° Southeast  Level Estimated
Sun 02:15:00 AM 12.5598 92.5458 134° Southeast  Level Estimated
Sun 02:16:00 AM 12.4685 92.6434 134° Southeast  Level Estimated
Sun 02:17:00 AM 12.3772 92.7408 134° Southeast  Level Estimated
Sun 02:18:00 AM 12.2859 92.8382 134° Southeast  Level Estimated
Sun 02:19:00 AM 12.1945 92.9356 134° Southeast  Level Estimated
Sun 02:20:00 AM 12.1031 93.0328 134° Southeast  Level Estimated
Sun 02:21:00 AM 12.0117 93.1300 134° Southeast  Level Estimated
Sun 02:22:00 AM 11.9202 93.2272 134° Southeast  Level Estimated
Sun 02:23:00 AM 11.8287 93.3242 134° Southeast  Level Estimated
Sun 02:24:00 AM 11.7372 93.4213 134° Southeast  Level Estimated
Sun 02:25:00 AM 11.6456 93.5182 134° Southeast  Level Estimated
Sun 02:26:00 AM 11.5541 93.6151 134° Southeast  Level Estimated
Sun 02:27:00 AM 11.4624 93.7119 134° Southeast  Level Estimated
Sun 02:28:00 AM 11.3708 93.8086 134° Southeast  Level Estimated
Sun 02:29:00 AM 11.2791 93.9053 134° Southeast  Level Estimated
Sun 02:30:00 AM 11.1874 94.0020 134° Southeast  Level Estimated
Sun 02:31:00 AM 11.0956 94.0985 134° Southeast  Level Estimated
Sun 02:32:00 AM 11.0038 94.1951 134° Southeast  Level Estimated
Sun 02:33:00 AM 10.9120 94.2915 134° Southeast  Level Estimated
Sun 02:34:00 AM 10.8202 94.3879 134° Southeast  Level Estimated
Sun 02:35:00 AM 10.7283 94.4842 134° Southeast  Level Estimated
Sun 02:36:00 AM 10.6364 94.5805 134° Southeast  Level Estimated
Sun 02:37:00 AM 10.5445 94.6767 134° Southeast  Level Estimated
Sun 02:38:00 AM 10.4525 94.7729 134° Southeast  Level Estimated
Sun 02:39:00 AM 10.3605 94.8689 134° Southeast  Level Estimated
Sun 02:40:00 AM 10.2685 94.9650 134° Southeast  Level Estimated
Sun 02:41:00 AM 10.1764 95.0610 134° Southeast  Level Estimated
Sun 02:42:00 AM 10.0844 95.1569 134° Southeast  Level Estimated
Sun 02:43:00 AM 9.9923 95.2528 134° Southeast  Level Estimated
Sun 02:44:00 AM 9.9001 95.3486 134° Southeast  Level Estimated
Sun 02:45:00 AM 9.8080 95.4444 134° Southeast  Level Estimated
Sun 02:46:00 AM 9.7158 95.5401 134° Southeast  Level Estimated
Sun 02:47:00 AM 9.6236 95.6357 134° Southeast  Level Estimated
Sun 02:48:00 AM 9.5314 95.7314 134° Southeast  Level Estimated
Sun 02:49:00 AM 9.4391 95.8269 134° Southeast  Level Estimated
Sun 02:50:00 AM 9.3468 95.9224 134° Southeast  Level Estimated
Sun 02:51:00 AM 9.2545 96.0179 134° Southeast  Level Estimated
Sun 02:52:00 AM 9.1622 96.1133 134° Southeast  Level Estimated
Sun 02:53:00 AM 9.0698 96.2087 134° Southeast  Level Estimated
Sun 02:54:00 AM 8.9774 96.3040 134° Southeast  Level Estimated
Sun 02:55:00 AM 8.8850 96.3992 134° Southeast  Level Estimated
Sun 02:56:00 AM 8.7925 96.4944 134° Southeast  Level Estimated
Sun 02:56:07 AM 6.5390 98.5910 135° Southeast 459 528 35,000  Level FlightAware ADS-B
Sun 02:57:00 AM 8.7001 96.5896 135° Southeast  Level Estimated
Sun 02:58:00 AM 8.6076 96.6847 135° Southeast  Level Estimated
Sun 02:58:32 AM 6.3470 98.8380 128° Southeast 459 528 35,000  Level FlightAware ADS-B
Sun 03:00:07 AM 6.2220 98.9990 128° Southeast 462 532 35,000  Level FlightAware ADS-B
Sun 03:02:00 AM 6.0489 99.1782 134° Southeast  Level Estimated
Sun 03:03:00 AM 5.9570 99.2733 134° Southeast  Level Estimated
Sun 03:04:00 AM 5.8650 99.3684 134° Southeast  Level Estimated
Sun 03:05:00 AM 5.7731 99.4634 134° Southeast  Level Estimated
Sun 03:06:00 AM 5.6811 99.5584 134° Southeast  Level Estimated
Sun 03:07:00 AM 5.5891 99.6534 134° Southeast  Level Estimated
Sun 03:08:00 AM 5.4971 99.7484 134° Southeast  Level Estimated
Sun 03:09:00 AM 5.4051 99.8433 134° Southeast  Level Estimated
Sun 03:10:00 AM 5.3131 99.9382 134° Southeast  Level Estimated
Sun 03:11:00 AM 5.2210 100.0330 134° Southeast  Level Estimated
Sun 03:12:00 AM 5.1290 100.1279 134° Southeast  Level Estimated
Sun 03:13:00 AM 5.0369 100.2227 134° Southeast  Level Estimated
Sun 03:14:00 AM 4.9448 100.3174 134° Southeast  Level Estimated
Sun 03:15:00 AM 4.8527 100.4122 134° Southeast  Level Estimated
Sun 03:16:00 AM 4.7606 100.5069 134° Southeast  Level Estimated
Sun 03:17:00 AM 4.6684 100.6016 134° Southeast  Level Estimated
Sun 03:18:00 AM 4.5763 100.6963 134° Southeast  Level Estimated
Sun 03:19:00 AM 4.4841 100.7909 134° Southeast  Level Estimated
Sun 03:20:00 AM 4.3920 100.8856 134° Southeast  Level Estimated
Sun 03:20:12 AM 4.2340 100.6360 134° Southeast 471 542 35,000  Level FlightAware ADS-B
Sun 03:20:57 AM 4.1500 100.6940 145° Southeast 472 543 35,000  Level FlightAware ADS-B
Sun 03:21:37 AM 4.0780 100.7450 145° Southeast 470 541 35,000  Level FlightAware ADS-B
Sun 03:22:17 AM 4.0070 100.7940 145° Southeast 468 539 35,000  Level FlightAware ADS-B
Sun 03:23:02 AM 3.9290 100.8490 145° Southeast 466 536 35,000  Level FlightAware ADS-B
Sun 03:23:47 AM 3.8520 100.9040 145° Southeast 464 534 35,000  Level FlightAware ADS-B
Sun 03:24:27 AM 3.7780 100.9560 145° Southeast 461 531 35,000  Level FlightAware ADS-B
Sun 03:25:07 AM 3.7090 101.0040 145° Southeast 460 529 35,000  Level FlightAware ADS-B
Sun 03:25:52 AM 3.6360 101.0560 145° Southeast 456 525 35,000  Level FlightAware ADS-B
Sun 03:27:52 AM 3.4390 101.1940 128° Southeast 456 525 35,000  Level FlightAware ADS-B
Sun 03:28:00 AM 3.4634 101.2786 128° Southeast  Level Estimated
Sun 03:28:37 AM 3.3460 101.2410 153° Southeast 462 532 35,000  Level FlightAware ADS-B
Sun 03:29:37 AM 3.2170 101.2950 157° South 462 532 35,000  Level FlightAware ADS-B
Sun 03:30:17 AM 3.1440 101.3260 157° South 463 533 35,000  Level FlightAware ADS-B
Sun 03:31:02 AM 3.0540 101.3720 153° Southeast 460 529 35,000  Level FlightAware ADS-B
Sun 03:31:37 AM 2.9950 101.4200 141° Southeast 464 534 35,000  Level FlightAware ADS-B
Sun 03:32:17 AM 2.9310 101.4720 141° Southeast 467 537 35,000  Level FlightAware ADS-B
Sun 03:33:07 AM 2.8560 101.5340 140° Southeast 470 541 35,000  Level FlightAware ADS-B
Sun 03:33:52 AM 2.8090 101.5710 142° Southeast 469 540 35,000  Level FlightAware ADS-B
Sun 03:34:37 AM 2.6910 101.6680 141° Southeast 473 544 35,000  Level FlightAware ADS-B
Sun 03:35:17 AM 2.6270 101.7210 140° Southeast 474 545 35,000  Level FlightAware ADS-B
Sun 03:36:07 AM 2.5410 101.7910 141° Southeast 474 545 35,000  Level FlightAware ADS-B
Sun 03:36:52 AM 2.4740 101.8470 140° Southeast 472 543 35,000  Level FlightAware ADS-B
Sun 03:37:32 AM 2.4060 101.9040 140° Southeast 471 542 35,000  Level FlightAware ADS-B
Sun 03:38:27 AM 2.3220 101.9990 132° Southeast 469 540 35,000  Level FlightAware ADS-B
Sun 03:39:02 AM 2.2730 102.0620 128° Southeast 468 539 35,000  Level FlightAware ADS-B
Sun 03:39:52 AM 2.2080 102.1450 128° Southeast 467 537 35,000  Level FlightAware ADS-B
Sun 03:40:27 AM 2.1660 102.2000 127° Southeast 467 537 35,000  Level FlightAware ADS-B
Sun 03:41:17 AM 2.1000 102.2850 128° Southeast 468 539 35,000  Level FlightAware ADS-B
Sun 03:41:47 AM 2.1310 102.2440 307° West 469 540 35,000  Level FlightAware ADS-B
Sun 03:42:42 AM 2.0660 102.3290 127° Southeast 469 540 35,000  Level FlightAware ADS-B
Sun 03:43:22 AM 2.0220 102.3880 127° Southeast 469 540 35,000  Level FlightAware ADS-B
Sun 03:44:02 AM 1.9780 102.4470 127° Southeast 469 540 35,000  Level FlightAware ADS-B
Sun 03:44:42 AM 1.9330 102.5060 127° Southeast 469 540 35,000  Level FlightAware ADS-B
Sun 03:45:22 AM 1.8890 102.5650 127° Southeast 469 540 35,000  Level FlightAware ADS-B
Sun 03:46:02 AM 1.8440 102.6240 127° Southeast 469 540 35,000  Level FlightAware ADS-B
Sun 03:46:52 AM 1.7890 102.6970 127° Southeast 469 540 35,000 -2,444 Level FlightAware ADS-B
Sun 03:47:32 AM 1.6680 102.9070 120° Southeast 31,000 -3,882 Descending FlightAware ADS-B
Sun 03:48:17 AM 1.6300 102.9940 114° Southeast 428 493 29,500 -1,425 Descending FlightAware ADS-B
Sun 03:48:52 AM 1.5780 103.0420 137° Southeast 401 461 29,100 -1,137 Descending FlightAware ADS-B
Sun 03:49:52 AM 1.4970 103.1080 141° Southeast 387 445 27,700 -1,104 Descending FlightAware ADS-B
Sun 03:50:57 AM 1.4140 103.1740 142° Southeast 380 437 26,800 -470 Descending FlightAware ADS-B
Sun 03:51:47 AM 1.3550 103.2200 142° Southeast 380 437 26,800  Level FlightAware ADS-B
Sun 03:52:27 AM 1.3080 103.2570 142° Southeast 380 437 26,800  Level FlightAware ADS-B
Sun 03:53:07 AM 1.2610 103.2940 142° Southeast 380 437 26,800  Level FlightAware ADS-B
Sun 03:53:47 AM 1.2140 103.3300 143° Southeast 380 437 26,800  Level FlightAware ADS-B
Sun 03:54:27 AM 1.1670 103.3670 142° Southeast 380 437 26,800 -1,765 Level FlightAware ADS-B
Sun 03:57:00 AM 1.2649 103.6888 73° East  Level Estimated
Sun 03:58:00 AM 1.3033 103.8150 73° East  Level Estimated
Sun 03:59:00 AM 1.3417 103.9413 73° East  Level Estimated
Sun 04:00:00 AM 1.3557 103.9875 73° East  Level Estimated
Sun 04:01:00 AM 1.3557 103.9875 214° Southwest  Level Estimated
Sun 04:02:00 AM 1.3557 103.9875 214° Southwest  Level Estimated
Sun 04:02:17 AM 1.0980 103.9170 214° Southwest 282 325 11,800  Level FlightAware ADS-B
Sun 04:02:57 AM 1.1070 103.9670 80° East 273 314 11,200 -1,050 Descending FlightAware ADS-B
Sun 04:03:37 AM 1.1160 104.0170 80° East 271 312 10,400 -1,200 Descending FlightAware ADS-B
Sun 04:03:52 AM 1.1220 104.0360 72° East 270 311 10,100 -933 Descending FlightAware ADS-B
Sun 04:04:22 AM 1.1430 104.0680 57° Northeast 270 311 9,700 -700 Descending FlightAware ADS-B
Sun 04:04:52 AM 1.1640 104.0980 55° Northeast 269 310 9,400 -655 Descending FlightAware ADS-B
Sun 04:05:17 AM 1.1800 104.1220 56° Northeast 267 307 9,100 -873 Descending FlightAware ADS-B
Sun 04:05:47 AM 1.2000 104.1530 57° Northeast 266 306 8,600 -1,200 Descending FlightAware ADS-B
Sun 04:06:12 AM 1.2180 104.1790 55° Northeast 267 307 8,000 -1,350 Descending FlightAware ADS-B
Sun 04:06:27 AM 1.2290 104.1940 54° Northeast 267 307 7,700 -1,067 Descending FlightAware ADS-B
Sun 04:06:57 AM 1.2530 104.2210 48° Northeast 262 302 7,200 -750 Descending FlightAware ADS-B
Sun 04:07:07 AM 1.2650 104.2250 18° North 262 302 7,200  Level FlightAware ADS-B
Sun 04:07:37 AM 1.3010 104.2270 North 262 302 7,200 -600 Level FlightAware ADS-B
Sun 04:08:07 AM 1.3380 104.2280 North 262 302 6,600 -1,091 Descending FlightAware ADS-B
Sun 04:08:32 AM 1.3690 104.2280 360° North 260 299 6,200 -960 Descending FlightAware ADS-B
Sun 04:08:57 AM 1.3980 104.2290 North 257 296 5,800 -933 Descending FlightAware ADS-B
Sun 04:09:17 AM 1.4210 104.2270 355° North 252 290 5,500 -800 Descending FlightAware ADS-B
Sun 04:09:27 AM 1.4320 104.2220 336° Northwest 250 288 5,400 -900 Descending FlightAware ADS-B
Sun 04:09:57 AM 1.4630 104.2040 330° Northwest 244 281 4,900 -800 Descending FlightAware ADS-B
Sun 04:10:27 AM 1.4900 104.1860 326° Northwest 226 260 4,600 -545 Descending FlightAware ADS-B
Sun 04:10:52 AM 1.5080 104.1670 313° West 214 246 4,400 -655 Descending FlightAware ADS-B
Sun 04:11:22 AM 1.5270 104.1450 311° West 206 237 4,000 -873 Descending FlightAware ADS-B
Sun 04:11:47 AM 1.5420 104.1290 313° West 202 232 3,600 -1,050 Descending FlightAware ADS-B
Sun 04:12:02 AM 1.5520 104.1180 312° West 199 229 3,300 -800 Descending FlightAware ADS-B
Sun 04:12:32 AM 1.5680 104.0990 310° West 198 228 3,000 -600 Descending FlightAware ADS-B
Sun 04:12:42 AM 1.5700 104.0910 284° West 195 224 2,900 -300 Descending FlightAware ADS-B
Sun 04:13:12 AM 1.5530 104.0670 235° Southwest 196 226 2,800 -200 Descending FlightAware ADS-B
Sun 04:13:42 AM 1.5300 104.0540 209° Southwest 198 228 2,700 -218 Descending FlightAware ADS-B
Sun 04:14:07 AM 1.5080 104.0450 202° Southwest 195 224 2,600 -436 Descending FlightAware ADS-B
Sun 04:14:37 AM 1.4840 104.0340 205° Southwest 187 215 2,300 -655 Descending FlightAware ADS-B
Sun 04:15:02 AM 1.4630 104.0260 201° Southwest 181 208 2,000 -764 Descending FlightAware ADS-B
Sun 04:15:32 AM 1.4430 104.0170 204° Southwest 164 189 1,600 -900 Descending FlightAware ADS-B
Sun 04:16:02 AM 1.4210 104.0080 202° Southwest 151 174 1,100 -873 Descending FlightAware ADS-B
Sun 04:16:27 AM 1.4050 104.0010 204° Southwest 157 181 800 -764 Descending FlightAware ADS-B
Sun 04:16:57 AM 1.3850 103.9930 202° Southwest 162 186 400 -800 Descending FlightAware ADS-B
Sun 04:20:00 AM 1.3557 103.9875 72° East  Level Estimated
Sun 04:21:00 AM 1.3557 103.9875 214° Southwest  Level Estimated

Login

Don't have an account? Register now (free) for customized features, flight alerts, and more!